Time;durP1;ratioP1;P1;durP2;ratioP2;P2;SDS_P1;SDS_P2;PMS_P1;PMS_P2;Temp;Humidity;BMP_temperature;BMP_pressure;BME280_temperature;BME280_humidity;BME280_pressure;Samples;Min_cycle;Max_cycle;Signal;HPM_P1;HPM_P2
2022/03/19 00:00:15;;;;;;;;;;;;;;;21.43;15.90;99963.00;5066209;28;1568;-73
2022/03/19 00:02:44;;;;;;;;;;;;;;;21.74;15.52;99958.69;5077197;28;1906;-73
2022/03/19 00:05:10;;;;;;;;;;;;;;;21.99;15.35;99961.59;5077484;28;1177;-73
2022/03/19 00:07:36;;;;;;;;;;;;;;;21.44;15.60;99964.63;5076771;28;964;-73
2022/03/19 00:10:01;;;;;;;;;;;;;;;21.29;15.70;99961.66;5109880;28;977;-73
2022/03/19 00:12:27;;;;;;;;;;;;;;;21.41;15.61;99959.75;5076763;28;855;-73
2022/03/19 00:14:52;;;;;;;;;;;;;;;21.68;15.59;99951.78;5066642;28;2004;-74
2022/03/19 00:17:17;;;;;;;;;;;;;;;22.00;15.28;99949.06;5056918;28;906;-73
2022/03/19 00:19:43;;;;;;;;;;;;;;;21.65;15.45;99953.38;5057110;28;996;-73
2022/03/19 00:22:08;;;;;;;;;;;;;;;21.28;15.92;99956.41;5056476;28;1981;-73
2022/03/19 00:24:35;;;;;;;;;;;;;;;21.11;15.89;99957.94;5056884;28;903;-73
2022/03/19 00:27:00;;;;;;;;;;;;;;;21.45;15.62;99949.25;5056882;28;1101;-73
2022/03/19 00:29:25;;;;;;;;;;;;;;;21.79;15.29;99946.97;5056001;28;1758;-73
2022/03/19 00:31:51;;;;;;;;;;;;;;;22.00;15.27;99949.84;5076722;28;1686;-73
2022/03/19 00:34:16;;;;;;;;;;;;;;;21.33;15.67;99948.38;5076703;28;1047;-73
2022/03/19 00:36:42;;;;;;;;;;;;;;;21.18;15.70;99943.81;5076556;28;896;-73
2022/03/19 00:39:08;;;;;;;;;;;;;;;21.58;15.50;99947.69;5076501;28;933;-73
2022/03/19 00:41:33;;;;;;;;;;;;;;;21.87;15.52;99944.97;5075376;28;1988;-73
2022/03/19 00:43:59;;;;;;;;;;;;;;;21.87;15.26;99947.81;5056420;28;1176;-73
2022/03/19 00:46:24;;;;;;;;;;;;;;;21.63;15.37;99944.47;5068889;28;1734;-73
2022/03/19 00:48:50;;;;;;;;;;;;;;;21.23;15.58;99943.44;5076111;28;903;-73
2022/03/19 00:51:15;;;;;;;;;;;;;;;21.06;16.13;99944.97;5075822;28;996;-73
2022/03/19 00:53:41;;;;;;;;;;;;;;;21.37;15.84;99948.41;5076226;28;953;-73
2022/03/19 00:56:06;;;;;;;;;;;;;;;21.76;15.16;99954.25;5076363;28;1213;-73
2022/03/19 00:58:31;;;;;;;;;;;;;;;21.84;15.11;99944.56;5076288;28;1182;-73
2022/03/19 01:00:57;;;;;;;;;;;;;;;21.89;15.21;99946.19;5061048;28;2496;-73
2022/03/19 01:03:23;;;;;;;;;;;;;;;21.82;15.29;99947.00;5056023;28;1918;-73
2022/03/19 01:05:48;;;;;;;;;;;;;;;21.93;15.20;99935.69;5055759;28;1032;-73
2022/03/19 01:08:14;;;;;;;;;;;;;;;21.93;15.15;99951.88;5055533;28;912;-73
2022/03/19 01:10:40;;;;;;;;;;;;;;;21.27;15.51;99943.47;5056286;28;1084;-73
2022/03/19 01:13:05;;;;;;;;;;;;;;;20.98;15.89;99936.81;5076198;28;2184;-73
2022/03/19 01:15:31;;;;;;;;;;;;;;;21.13;15.76;99938.53;5093871;28;1023;-73
2022/03/19 01:17:56;;;;;;;;;;;;;;;21.71;15.47;99940.47;5093380;28;1080;-73
2022/03/19 01:20:22;;;;;;;;;;;;;;;21.87;15.23;99931.63;5093203;28;1549;-74
2022/03/19 01:22:47;;;;;;;;;;;;;;;21.31;15.72;99922.50;5076651;28;1971;-73
2022/03/19 01:25:13;;;;;;;;;;;;;;;21.19;15.79;99919.97;5093508;28;992;-73
2022/03/19 01:27:40;;;;;;;;;;;;;;;21.90;15.16;99908.13;5052594;28;1868;-73
2022/03/19 01:30:06;;;;;;;;;;;;;;;21.81;15.10;99908.53;5036396;28;955;-73
2022/03/19 01:32:31;;;;;;;;;;;;;;;22.20;14.66;99913.47;5036721;28;931;-73
2022/03/19 01:34:57;;;;;;;;;;;;;;;21.59;15.34;99915.31;5053333;28;1199;-73
2022/03/19 01:37:22;;;;;;;;;;;;;;;21.32;15.40;99911.97;5049383;28;997;-73
2022/03/19 01:39:48;;;;;;;;;;;;;;;21.01;15.74;99914.19;5016576;28;1057;-73
2022/03/19 01:42:26;;;;;;;;;;;;;;;21.73;15.21;99904.03;5015293;28;2303;-73
2022/03/19 01:44:52;;;;;;;;;;;;;;;21.92;14.98;99905.72;5000796;28;989;-73
2022/03/19 01:47:17;;;;;;;;;;;;;;;22.00;14.99;99906.53;4993589;28;1398;-73
2022/03/19 01:49:42;;;;;;;;;;;;;;;21.40;15.37;99904.31;4996923;28;1018;-73
2022/03/19 01:52:08;;;;;;;;;;;;;;;21.16;15.48;99909.44;5013046;28;2002;-73
2022/03/19 01:54:35;;;;;;;;;;;;;;;21.32;15.47;99906.31;5013172;28;965;-73
2022/03/19 01:57:00;;;;;;;;;;;;;;;21.73;15.05;99904.03;5013156;28;1072;-73
2022/03/19 01:59:31;;;;;;;;;;;;;;;22.04;14.76;99902.50;5036608;28;2069;-73
2022/03/19 02:01:56;;;;;;;;;;;;;;;21.43;15.17;99914.84;5019630;28;1906;-73
2022/03/19 02:04:22;;;;;;;;;;;;;;;21.65;15.01;99902.38;5036406;28;972;-73
2022/03/19 02:06:48;;;;;;;;;;;;;;;21.55;15.09;99906.84;5052944;28;957;-73
2022/03/19 02:09:13;;;;;;;;;;;;;;;21.11;15.63;99901.31;5036270;28;968;-73
2022/03/19 02:11:39;;;;;;;;;;;;;;;21.22;15.35;99902.19;5038194;28;1748;-73
2022/03/19 02:14:04;;;;;;;;;;;;;;;21.81;14.96;99891.53;5033420;28;1007;-73
2022/03/19 02:16:30;;;;;;;;;;;;;;;21.77;15.06;99895.56;5035719;28;950;-73
2022/03/19 02:19:01;;;;;;;;;;;;;;;21.38;15.11;99898.25;5067335;28;924;-73
2022/03/19 02:21:27;;;;;;;;;;;;;;;21.15;15.48;99893.66;5034832;28;1047;-73
2022/03/19 02:26:42;;;;;;;;;;;;;;;21.94;14.72;99885.47;5095307;28;1745;-73
2022/03/19 02:29:08;;;;;;;;;;;;;;;21.89;14.80;99891.53;5074893;28;943;-73
2022/03/19 02:31:33;;;;;;;;;;;;;;;21.47;15.34;99890.19;5075574;28;1106;-73
2022/03/19 02:33:58;;;;;;;;;;;;;;;21.23;15.62;99892.47;5107687;28;991;-73
2022/03/19 02:36:24;;;;;;;;;;;;;;;21.37;15.28;99890.97;5074770;28;1182;-73
2022/03/19 02:38:51;;;;;;;;;;;;;;;21.72;15.22;99885.44;5075387;28;948;-73
2022/03/19 02:41:17;;;;;;;;;;;;;;;21.82;15.04;99886.66;5059596;28;1995;-73
2022/03/19 02:43:42;;;;;;;;;;;;;;;21.87;14.91;99893.97;5054824;28;1910;-73
2022/03/19 02:46:08;;;;;;;;;;;;;;;21.74;14.79;99890.69;5055038;28;936;-73
2022/03/19 02:48:34;;;;;;;;;;;;;;;21.38;15.05;99898.25;5054924;28;940;-73
2022/03/19 02:51:00;;;;;;;;;;;;;;;21.16;15.41;99892.44;5054766;28;930;-73
2022/03/19 02:53:25;;;;;;;;;;;;;;;21.67;14.82;99899.97;5057960;28;874;-73
2022/03/19 02:55:51;;;;;;;;;;;;;;;21.99;14.68;99900.06;5058348;28;1692;-73
2022/03/19 02:58:16;;;;;;;;;;;;;;;21.54;14.71;99901.53;5058464;28;991;-73
2022/03/19 03:00:42;;;;;;;;;;;;;;;21.13;15.27;99893.22;5058372;28;925;-73
2022/03/19 03:03:07;;;;;;;;;;;;;;;21.25;15.03;99904.22;5058318;28;1971;-73
2022/03/19 03:05:36;;;;;;;;;;;;;;;21.85;14.70;99900.81;5058076;28;894;-73
2022/03/19 03:08:01;;;;;;;;;;;;;;;22.08;14.33;99902.50;5076688;28;1745;-73
2022/03/19 03:10:27;;;;;;;;;;;;;;;21.85;14.59;99903.66;5078638;28;1014;-73
2022/03/19 03:12:52;;;;;;;;;;;;;;;21.53;14.96;99911.25;5110970;28;967;-73
2022/03/19 03:15:18;;;;;;;;;;;;;;;21.28;14.99;99911.91;5078101;28;915;-73
2022/03/19 03:17:43;;;;;;;;;;;;;;;21.84;14.69;99902.03;5078149;28;898;-73
2022/03/19 03:20:09;;;;;;;;;;;;;;;22.14;13.96;99891.59;5110702;28;1142;-73
2022/03/19 03:22:37;;;;;;;;;;;;;;;22.03;14.50;99900.88;5115662;28;2102;-73
2022/03/19 03:25:03;;;;;;;;;;;;;;;22.04;14.28;99898.84;5116109;28;984;-73
2022/03/19 03:27:29;;;;;;;;;;;;;;;21.98;14.04;99886.28;5116344;28;1002;-73
2022/03/19 03:29:54;;;;;;;;;;;;;;;21.39;14.61;99897.84;5098723;28;1514;-73
2022/03/19 03:32:20;;;;;;;;;;;;;;;21.12;14.84;99899.31;5115940;28;1138;-73
2022/03/19 03:34:45;;;;;;;;;;;;;;;21.84;14.18;99893.53;5105178;28;2021;-73
2022/03/19 03:37:11;;;;;;;;;;;;;;;22.04;14.22;99890.34;5095265;28;995;-73
2022/03/19 03:39:36;;;;;;;;;;;;;;;22.07;14.23;99907.38;5074729;28;2088;-73
2022/03/19 03:42:01;;;;;;;;;;;;;;;22.03;14.04;99900.88;5075171;28;1906;-73
2022/03/19 03:44:27;;;;;;;;;;;;;;;21.95;14.26;99904.09;5075273;28;1049;-73
2022/03/19 03:46:52;;;;;;;;;;;;;;;21.36;14.38;99912.81;5075014;28;966;-73
2022/03/19 03:49:18;;;;;;;;;;;;;;;21.35;14.40;99908.38;5075096;28;969;-73
2022/03/19 03:51:43;;;;;;;;;;;;;;;21.71;14.38;99911.31;5034783;28;1050;-73
2022/03/19 03:54:09;;;;;;;;;;;;;;;21.35;14.75;99905.53;5023758;28;2024;-73
2022/03/19 03:56:35;;;;;;;;;;;;;;;21.25;14.68;99915.56;5054857;28;1054;-73
2022/03/19 03:59:00;;;;;;;;;;;;;;;21.97;14.05;99913.84;5054896;28;1162;-73
2022/03/19 04:01:25;;;;;;;;;;;;;;;21.97;14.22;99924.38;5035120;28;2026;-73
2022/03/19 04:03:51;;;;;;;;;;;;;;;22.21;13.90;99928.47;5034268;28;1922;-73
2022/03/19 04:06:16;;;;;;;;;;;;;;;22.35;13.97;99925.66;5034951;28;1096;-73
2022/03/19 04:08:42;;;;;;;;;;;;;;;21.72;14.25;99927.94;5034705;28;975;-73
2022/03/19 04:11:07;;;;;;;;;;;;;;;21.33;14.67;99939.88;5034892;28;1028;-73
2022/03/19 04:13:34;;;;;;;;;;;;;;;21.38;14.76;99932.22;5035137;28;1774;-73
2022/03/19 04:15:59;;;;;;;;;;;;;;;21.77;14.25;99944.53;5054556;28;1079;-73
2022/03/19 04:18:26;;;;;;;;;;;;;;;21.93;14.00;99941.34;5054571;28;1019;-73
2022/03/19 04:20:52;;;;;;;;;;;;;;;21.64;14.29;99940.44;5054341;28;1179;-73
2022/03/19 04:23:17;;;;;;;;;;;;;;;21.30;15.02;99946.34;5054320;28;1914;-73
2022/03/19 04:25:43;;;;;;;;;;;;;;;21.30;15.02;99954.84;5054389;28;948;-73
2022/03/19 04:28:11;;;;;;;;;;;;;;;21.42;14.87;99952.88;5056250;28;1067;-73
2022/03/19 04:30:37;;;;;;;;;;;;;;;21.78;14.31;99948.19;5076881;28;993;-73
2022/03/19 04:33:04;;;;;;;;;;;;;;;22.00;14.23;99947.03;5061820;28;1689;-73
2022/03/19 04:38:14;;;;;;;;;;;;;;;21.17;14.97;99958.38;5094284;28;1028;-73
2022/03/19 04:40:40;;;;;;;;;;;;;;;21.13;15.06;99961.16;5094370;28;986;-73
2022/03/19 04:43:06;;;;;;;;;;;;;;;21.52;14.50;99960.63;5094144;28;1986;-73
2022/03/19 04:45:31;;;;;;;;;;;;;;;21.79;14.52;99963.97;5093706;28;1173;-73
2022/03/19 04:47:57;;;;;;;;;;;;;;;21.77;14.57;99958.72;5095181;28;1958;-73
2022/03/19 04:50:22;;;;;;;;;;;;;;;21.37;15.01;99958.94;5095180;28;2013;-73
2022/03/19 04:52:48;;;;;;;;;;;;;;;21.18;15.25;99957.97;5094098;28;924;-73
2022/03/19 04:55:13;;;;;;;;;;;;;;;21.50;14.75;99957.34;5093277;28;1665;-73
2022/03/19 04:57:39;;;;;;;;;;;;;;;21.84;14.57;99961.56;5093698;28;1079;-73
2022/03/19 05:00:05;;;;;;;;;;;;;;;21.99;14.38;99947.44;5093597;28;1024;-73
2022/03/19 05:02:30;;;;;;;;;;;;;;;21.70;14.91;99953.00;5076210;28;1989;-73
2022/03/19 05:04:56;;;;;;;;;;;;;;;21.28;14.96;99957.22;5093623;28;1170;-73
2022/03/19 05:07:22;;;;;;;;;;;;;;;21.39;15.13;99967.81;5093517;28;1115;-73
2022/03/19 05:12:32;;;;;;;;;;;;;;;21.86;14.75;99969.66;5055311;28;994;-73
2022/03/19 05:14:58;;;;;;;;;;;;;;;21.47;14.98;99973.13;5054819;28;930;-73
2022/03/19 05:17:23;;;;;;;;;;;;;;;21.28;15.07;99984.72;5054939;28;945;-73
2022/03/19 05:19:48;;;;;;;;;;;;;;;21.23;15.22;99983.06;5055614;28;1060;-73
2022/03/19 05:22:14;;;;;;;;;;;;;;;21.65;14.83;99987.38;5055660;28;1909;-73
2022/03/19 05:24:40;;;;;;;;;;;;;;;21.83;14.56;99985.44;5086875;28;1118;-73
2022/03/19 05:27:05;;;;;;;;;;;;;;;21.68;14.72;99986.59;5055312;28;893;-73
2022/03/19 05:29:31;;;;;;;;;;;;;;;21.26;15.03;99987.97;5055291;28;1046;-73
2022/03/19 05:31:56;;;;;;;;;;;;;;;21.26;15.16;99987.97;5055559;28;1047;-73
2022/03/19 05:34:31;;;;;;;;;;;;;;;21.47;15.17;99997.81;5087821;28;928;-73
2022/03/19 05:37:00;;;;;;;;;;;;;;;21.85;14.86;99990.69;5093095;28;1015;-73
2022/03/19 05:39:29;;;;;;;;;;;;;;;21.95;14.76;99997.63;5093118;28;1006;-73
2022/03/19 05:41:55;;;;;;;;;;;;;;;21.41;14.87;100002.25;5092686;28;1926;-73
2022/03/19 05:44:20;;;;;;;;;;;;;;;21.30;15.29;100005.81;5092986;28;1085;-73
2022/03/19 05:46:46;;;;;;;;;;;;;;;21.37;15.21;99992.91;5092946;28;966;-73
2022/03/19 05:49:11;;;;;;;;;;;;;;;21.72;14.66;99995.94;5093091;28;885;-73
2022/03/19 05:51:37;;;;;;;;;;;;;;;21.91;14.70;99994.78;5093201;28;1016;-73
2022/03/19 05:54:02;;;;;;;;;;;;;;;21.94;14.52;99993.97;5093101;28;1069;-73
2022/03/19 05:56:28;;;;;;;;;;;;;;;21.43;15.07;99991.31;5092803;28;1041;-73
2022/03/19 05:58:55;;;;;;;;;;;;;;;21.38;15.05;99997.34;5092672;28;1109;-73
2022/03/19 06:01:26;;;;;;;;;;;;;;;21.36;14.94;99986.44;5075824;28;1064;-73
2022/03/19 06:03:51;;;;;;;;;;;;;;;21.69;15.01;99999.53;5092896;28;1905;-73
2022/03/19 06:06:17;;;;;;;;;;;;;;;21.83;14.52;99996.78;5092601;28;986;-73
2022/03/19 06:08:43;;;;;;;;;;;;;;;21.87;14.46;99996.00;5058769;28;996;-73
2022/03/19 06:11:09;;;;;;;;;;;;;;;21.35;15.06;99998.13;5068919;28;993;-73
2022/03/19 06:13:34;;;;;;;;;;;;;;;21.17;15.22;100007.31;5054777;28;934;-73
2022/03/19 06:16:00;;;;;;;;;;;;;;;21.27;15.20;100000.09;5054912;28;1001;-73
2022/03/19 06:18:26;;;;;;;;;;;;;;;21.62;14.91;99999.53;5054653;28;933;-73
2022/03/19 06:20:51;;;;;;;;;;;;;;;21.80;14.83;100006.06;5054477;28;1115;-73
2022/03/19 06:23:17;;;;;;;;;;;;;;;21.93;14.62;100002.91;5054406;28;1922;-73
2022/03/19 06:25:43;;;;;;;;;;;;;;;21.42;14.86;99995.38;5054430;28;978;-73
2022/03/19 06:28:08;;;;;;;;;;;;;;;21.17;15.17;99995.97;5057144;28;1163;-73
2022/03/19 06:30:37;;;;;;;;;;;;;;;21.48;14.77;100005.91;5058489;28;1050;-73
2022/03/19 06:33:03;;;;;;;;;;;;;;;21.69;14.66;100005.22;5058370;28;960;-73
2022/03/19 06:38:13;;;;;;;;;;;;;;;21.89;14.48;100002.88;5058441;28;912;-73
2022/03/19 06:40:38;;;;;;;;;;;;;;;22.00;14.44;99997.25;5058527;28;981;-74
2022/03/19 06:43:04;;;;;;;;;;;;;;;21.36;14.85;100013.94;5058503;28;1981;-73
2022/03/19 06:45:29;;;;;;;;;;;;;;;21.28;14.95;100001.72;5058773;28;1124;-73
2022/03/19 06:47:55;;;;;;;;;;;;;;;21.60;14.81;100007.59;5058764;28;975;-73
2022/03/19 06:50:20;;;;;;;;;;;;;;;21.83;14.45;100004.47;5058253;28;978;-73
2022/03/19 06:52:47;;;;;;;;;;;;;;;21.77;14.47;100012.53;5058292;28;950;-73
2022/03/19 06:55:12;;;;;;;;;;;;;;;21.59;14.65;100020.13;5058476;28;967;-73
2022/03/19 06:57:37;;;;;;;;;;;;;;;21.20;14.98;100029.19;5057943;28;965;-73
2022/03/19 07:00:03;;;;;;;;;;;;;;;21.03;15.21;100030.66;5058016;28;961;-73
2022/03/19 07:02:29;;;;;;;;;;;;;;;21.59;14.74;100034.28;5058316;28;1970;-73
2022/03/19 07:04:54;;;;;;;;;;;;;;;21.85;14.20;100031.19;5057891;28;1086;-73
2022/03/19 07:07:20;;;;;;;;;;;;;;;21.83;14.05;100022.28;5057882;28;995;-73
2022/03/19 07:09:45;;;;;;;;;;;;;;;21.54;14.31;100026.97;5058317;28;999;-73
2022/03/19 07:12:13;;;;;;;;;;;;;;;21.31;14.83;100023.63;5057782;28;1048;-73
2022/03/19 07:14:39;;;;;;;;;;;;;;;21.28;14.70;100025.16;5058068;28;957;-73
2022/03/19 07:17:04;;;;;;;;;;;;;;;21.54;14.59;100020.50;5058067;28;1032;-73
2022/03/19 07:19:30;;;;;;;;;;;;;;;21.89;14.39;100017.03;5057723;28;1220;-73
2022/03/19 07:21:56;;;;;;;;;;;;;;;21.98;14.03;100030.84;5057534;28;1987;-73
2022/03/19 07:24:21;;;;;;;;;;;;;;;21.75;14.41;100028.31;5057788;28;955;-73
2022/03/19 07:26:47;;;;;;;;;;;;;;;21.27;14.61;100023.56;5057606;28;915;-73
2022/03/19 07:29:15;;;;;;;;;;;;;;;21.32;14.81;100030.91;5057454;28;863;-73
2022/03/19 07:31:40;;;;;;;;;;;;;;;21.63;14.49;100029.47;5057678;28;995;-73
2022/03/19 07:34:06;;;;;;;;;;;;;;;21.75;14.47;100031.94;5057563;28;988;-74
2022/03/19 07:36:32;;;;;;;;;;;;;;;21.94;14.32;100027.19;5057881;28;967;-74
2022/03/19 07:38:57;;;;;;;;;;;;;;;21.96;13.88;100038.94;5056295;28;950;-74
2022/03/19 07:44:06;;;;;;;;;;;;;;;21.26;14.81;100030.44;5054816;28;1922;-74
2022/03/19 07:46:31;;;;;;;;;;;;;;;21.35;14.73;100029.28;5015050;28;1048;-74
2022/03/19 07:48:57;;;;;;;;;;;;;;;21.67;14.39;100030.31;5015092;28;1128;-73
2022/03/19 07:51:22;;;;;;;;;;;;;;;21.87;14.24;100041.34;5015136;28;983;-74
2022/03/19 07:53:48;;;;;;;;;;;;;;;21.94;14.04;100044.19;5014904;28;952;-74
2022/03/19 07:56:14;;;;;;;;;;;;;;;21.54;14.45;100038.31;5015192;28;1032;-74
2022/03/19 07:58:40;;;;;;;;;;;;;;;21.32;14.48;100036.56;5014912;28;1032;-74
2022/03/19 08:01:06;;;;;;;;;;;;;;;21.46;14.60;100030.19;5014415;28;959;-74
2022/03/19 08:03:31;;;;;;;;;;;;;;;21.65;14.38;100032.69;5014782;28;1968;-73
2022/03/19 08:05:57;;;;;;;;;;;;;;;21.84;14.24;100037.25;4997918;28;1625;-74
2022/03/19 08:08:22;;;;;;;;;;;;;;;21.88;14.31;100031.63;5014838;28;973;-74
2022/03/19 08:10:48;;;;;;;;;;;;;;;21.53;14.36;100030.22;5014593;28;1000;-74
2022/03/19 08:13:13;;;;;;;;;;;;;;;21.14;14.76;100025.09;4998586;28;1121;-74
2022/03/19 08:15:39;;;;;;;;;;;;;;;21.39;14.65;100035.78;5034400;28;886;-74
2022/03/19 08:18:05;;;;;;;;;;;;;;;21.74;14.27;100030.31;5022836;28;1598;-74
2022/03/19 08:20:31;;;;;;;;;;;;;;;21.92;14.13;100026.78;5033587;28;1578;-74
2022/03/19 08:22:56;;;;;;;;;;;;;;;21.98;13.84;100017.50;5033793;28;1906;-74
2022/03/19 08:25:22;;;;;;;;;;;;;;;21.83;14.14;100021.47;5034121;28;1410;-74
2022/03/19 08:27:49;;;;;;;;;;;;;;;21.32;14.69;100020.38;5033708;28;1632;-74
2022/03/19 08:30:15;;;;;;;;;;;;;;;21.14;14.67;100013.78;5033554;28;1569;-74
2022/03/19 08:32:40;;;;;;;;;;;;;;;21.65;14.57;100024.19;5034063;28;1426;-74
2022/03/19 08:35:06;;;;;;;;;;;;;;;21.85;14.29;100016.22;5033840;28;980;-74
2022/03/19 08:37:32;;;;;;;;;;;;;;;21.97;13.91;100020.72;5033870;28;1074;-74
2022/03/19 08:40:16;;;;;;;;;;;;;;;21.80;14.32;100028.72;5073694;28;1003;-74
2022/03/19 08:42:42;;;;;;;;;;;;;;;21.23;14.79;100011.38;5073559;28;1905;-74
2022/03/19 08:45:08;;;;;;;;;;;;;;;21.14;14.78;100013.78;5073797;28;1028;-74
2022/03/19 08:47:33;;;;;;;;;;;;;;;21.56;14.15;100007.59;5039774;28;1100;-74
2022/03/19 08:50:00;;;;;;;;;;;;;;;21.78;14.06;100002.81;5109022;28;984;-74
2022/03/19 08:52:26;;;;;;;;;;;;;;;21.88;14.10;100011.78;5114396;28;1010;-74
2022/03/19 08:54:52;;;;;;;;;;;;;;;21.84;14.17;100006.91;5114103;28;1036;-74
2022/03/19 08:57:18;;;;;;;;;;;;;;;21.32;14.48;100014.72;5114181;28;1031;-74
2022/03/19 08:59:44;;;;;;;;;;;;;;;21.17;14.79;100024.28;5113686;28;1105;-74
2022/03/19 09:02:09;;;;;;;;;;;;;;;21.53;14.25;100021.72;5113996;28;1982;-74
2022/03/19 09:04:35;;;;;;;;;;;;;;;21.87;14.13;100018.66;5114079;28;1007;-74
2022/03/19 09:07:01;;;;;;;;;;;;;;;21.92;14.26;100023.94;5073174;28;1003;-74
2022/03/19 09:09:26;;;;;;;;;;;;;;;21.59;14.18;100022.97;5055967;28;1215;-73
2022/03/19 09:11:51;;;;;;;;;;;;;;;21.22;14.75;100026.75;5038365;28;1022;-74
2022/03/19 09:14:18;;;;;;;;;;;;;;;21.21;14.91;100030.78;5033356;28;1043;-74
2022/03/19 09:16:43;;;;;;;;;;;;;;;21.67;14.50;100024.63;5016615;28;1325;-74
2022/03/19 09:19:09;;;;;;;;;;;;;;;21.78;14.11;100024.69;5033287;28;1224;-74
2022/03/19 09:21:34;;;;;;;;;;;;;;;21.90;14.02;100020.69;5033093;28;1007;-74
2022/03/19 09:24:00;;;;;;;;;;;;;;;21.47;14.52;100018.47;5033126;28;1906;-74
2022/03/19 09:26:26;;;;;;;;;;;;;;;21.41;14.45;100024.91;5032963;28;1102;-74
2022/03/19 09:28:51;;;;;;;;;;;;;;;21.48;14.42;100025.75;5032909;28;939;-74
2022/03/19 09:31:17;;;;;;;;;;;;;;;21.72;14.32;100010.09;5032756;28;995;-74
2022/03/19 09:33:45;;;;;;;;;;;;;;;21.88;13.99;100006.13;5032887;28;1435;-73
2022/03/19 09:36:11;;;;;;;;;;;;;;;21.45;14.75;100011.53;5033260;28;967;-74
2022/03/19 09:38:36;;;;;;;;;;;;;;;21.30;14.48;100008.66;5049496;28;999;-74
2022/03/19 09:41:01;;;;;;;;;;;;;;;21.24;14.68;100017.84;5055305;28;1131;-74
2022/03/19 09:43:27;;;;;;;;;;;;;;;21.45;14.45;100020.88;5055176;28;1910;-74
2022/03/19 09:45:52;;;;;;;;;;;;;;;21.72;14.15;100015.75;5055084;28;1098;-74
2022/03/19 09:48:19;;;;;;;;;;;;;;;21.75;14.09;100031.94;5054702;28;1008;-74
2022/03/19 09:50:45;;;;;;;;;;;;;;;21.92;13.84;100035.28;5054857;28;934;-74
2022/03/19 09:53:10;;;;;;;;;;;;;;;21.56;14.50;100040.78;5055203;28;985;-74
2022/03/19 09:55:39;;;;;;;;;;;;;;;21.40;14.65;100037.41;5053847;28;1025;-74
2022/03/19 09:58:04;;;;;;;;;;;;;;;21.16;14.98;100039.66;5052776;28;1002;-74
2022/03/19 10:00:30;;;;;;;;;;;;;;;21.50;14.45;100043.16;5054922;28;973;-74
2022/03/19 10:02:56;;;;;;;;;;;;;;;21.77;14.35;100032.38;5057445;28;1906;-74
2022/03/19 10:10:50;;;;;;;;;;;;;;;21.23;14.90;100045.34;5058948;28;947;-74
2022/03/19 10:13:16;;;;;;;;;;;;;;;21.58;14.63;100039.16;5055993;28;1723;-74
2022/03/19 10:15:41;;;;;;;;;;;;;;;21.85;14.30;100048.19;5055246;28;2181;-73
2022/03/19 10:18:10;;;;;;;;;;;;;;;22.00;14.10;100037.72;5056473;28;1626;-74
2022/03/19 10:20:36;;;;;;;;;;;;;;;21.49;14.65;100052.03;5056335;28;1230;-74
2022/03/19 10:23:02;;;;;;;;;;;;;;;21.40;14.59;100045.91;5055865;28;1910;-73
2022/03/19 10:25:28;;;;;;;;;;;;;;;21.51;14.52;100046.81;5055976;28;1448;-73
2022/03/19 10:27:53;;;;;;;;;;;;;;;21.75;14.39;100040.44;5039203;28;1564;-73
2022/03/19 10:30:20;;;;;;;;;;;;;;;21.87;14.29;100038.50;5038924;28;1556;-73
2022/03/19 10:32:54;;;;;;;;;;;;;;;21.95;14.21;100045.81;5039291;28;1584;-73
2022/03/19 10:35:24;;;;;;;;;;;;;;;21.41;14.54;100048.38;5036372;28;1063;-73
2022/03/19 10:37:49;;;;;;;;;;;;;;;21.32;14.93;100048.69;5036424;28;1033;-73
2022/03/19 10:40:15;;;;;;;;;;;;;;;21.31;14.54;100047.06;5036422;28;944;-73
2022/03/19 10:42:40;;;;;;;;;;;;;;;21.60;14.32;100058.56;5036207;28;2237;-73
2022/03/19 10:45:09;;;;;;;;;;;;;;;21.80;14.22;100040.06;5056023;28;1030;-73
2022/03/19 10:47:52;;;;;;;;;;;;;;;21.78;14.34;100031.16;5056189;28;1098;-73
2022/03/19 10:50:19;;;;;;;;;;;;;;;21.20;14.69;100023.50;5056220;28;1029;-73
2022/03/19 10:52:48;;;;;;;;;;;;;;;21.17;14.82;100024.28;5056089;28;1036;-73
2022/03/19 10:55:15;;;;;;;;;;;;;;;21.51;14.53;100010.78;5016211;28;1070;-73
2022/03/19 10:57:41;;;;;;;;;;;;;;;21.74;14.60;100024.66;5016078;28;1029;-73
2022/03/19 11:00:07;;;;;;;;;;;;;;;21.90;14.37;100020.69;4999761;28;1212;-73
2022/03/19 11:02:33;;;;;;;;;;;;;;;22.03;14.04;100007.78;4999603;28;1915;-73
2022/03/19 11:04:59;;;;;;;;;;;;;;;21.67;14.55;99996.31;5015994;28;1008;-73
2022/03/19 11:07:24;;;;;;;;;;;;;;;21.42;14.53;100001.03;4997272;28;1239;-73
2022/03/19 11:09:51;;;;;;;;;;;;;;;21.24;14.68;100004.53;5012798;28;991;-73
2022/03/19 11:12:17;;;;;;;;;;;;;;;21.77;14.19;100000.41;4996099;28;1661;-73
2022/03/19 11:14:42;;;;;;;;;;;;;;;21.89;14.06;100002.06;4994680;28;1571;-73
2022/03/19 11:17:24;;;;;;;;;;;;;;;21.93;14.25;100002.91;4959513;28;1487;-73
2022/03/19 11:19:49;;;;;;;;;;;;;;;21.33;14.48;99982.34;4956283;29;1345;-73
2022/03/19 11:22:15;;;;;;;;;;;;;;;21.38;14.72;99980.38;4957000;29;1981;-73
2022/03/19 11:24:45;;;;;;;;;;;;;;;21.29;14.88;99986.34;4957495;29;946;-73
2022/03/19 11:27:11;;;;;;;;;;;;;;;21.70;14.26;99978.50;4974898;28;1022;-73
2022/03/19 11:29:36;;;;;;;;;;;;;;;21.85;14.13;99982.19;4976686;28;1016;-73
2022/03/19 11:32:02;;;;;;;;;;;;;;;21.95;14.21;99972.13;4976749;28;1013;-73
2022/03/19 11:34:41;;;;;;;;;;;;;;;21.62;14.44;99954.19;4985043;28;1021;-73
2022/03/19 11:37:06;;;;;;;;;;;;;;;21.37;14.71;99954.06;4996708;28;1119;-73
2022/03/19 11:39:32;;;;;;;;;;;;;;;21.16;14.59;99960.41;4995947;28;994;-73
2022/03/19 11:41:57;;;;;;;;;;;;;;;21.53;14.58;99968.72;5008615;28;1906;-73
2022/03/19 11:44:27;;;;;;;;;;;;;;;21.89;13.96;99968.06;4976401;28;938;-73
2022/03/19 11:47:13;;;;;;;;;;;;;;;21.78;13.98;99968.81;5034569;28;933;-73
2022/03/19 11:49:52;;;;;;;;;;;;;;;21.36;14.73;99957.31;5035357;28;1050;-73
2022/03/19 11:52:26;;;;;;;;;;;;;;;21.38;14.87;99966.22;5015558;28;961;-73
2022/03/19 11:55:18;;;;;;;;;;;;;;;21.60;14.47;99979.25;5015270;28;1080;-73
2022/03/19 11:57:46;;;;;;;;;;;;;;;21.82;13.97;99975.31;5035012;28;1392;-73
2022/03/19 12:00:14;;;;;;;;;;;;;;;22.01;13.91;99979.00;5034794;28;1358;-73
2022/03/19 12:02:58;;;;;;;;;;;;;;;21.77;13.94;99972.88;5034826;28;1990;-73
2022/03/19 12:05:26;;;;;;;;;;;;;;;21.35;14.61;99966.97;5034984;28;1063;-73
2022/03/19 12:07:53;;;;;;;;;;;;;;;21.25;14.67;99963.69;5034735;28;1063;-73
2022/03/19 12:10:20;;;;;;;;;;;;;;;21.58;14.12;99954.16;5034511;28;1057;-73
2022/03/19 12:12:46;;;;;;;;;;;;;;;21.82;14.19;99941.31;5026500;28;958;-73
2022/03/19 12:15:47;;;;;;;;;;;;;;;21.85;13.99;99945.34;5008722;28;1692;-74
2022/03/19 12:18:34;;;;;;;;;;;;;;;21.45;14.30;99949.25;4965460;28;1471;-74
2022/03/19 12:21:08;;;;;;;;;;;;;;;21.32;14.45;99943.94;4962680;28;1523;-73
2022/03/19 12:23:52;;;;;;;;;;;;;;;21.62;14.48;99942.06;4982892;28;1972;-73
2022/03/19 12:26:20;;;;;;;;;;;;;;;21.72;14.30;99941.28;4994507;28;941;-74
2022/03/19 12:28:49;;;;;;;;;;;;;;;21.85;14.20;99940.50;4994750;28;1044;-74
2022/03/19 12:31:14;;;;;;;;;;;;;;;21.83;13.99;99940.09;4992444;28;1037;-74
2022/03/19 12:33:40;;;;;;;;;;;;;;;21.36;14.47;99935.47;4994855;28;1016;-74
2022/03/19 12:36:19;;;;;;;;;;;;;;;21.19;14.82;99936.97;4994818;28;955;-74
2022/03/19 12:38:45;;;;;;;;;;;;;;;21.60;14.17;99931.09;4994456;28;1044;-74
2022/03/19 12:41:29;;;;;;;;;;;;;;;21.77;14.24;99936.03;4994529;28;1175;-74
2022/03/19 12:43:55;;;;;;;;;;;;;;;21.95;13.89;99916.25;4994757;28;1918;-74
2022/03/19 12:46:24;;;;;;;;;;;;;;;21.40;14.52;99936.28;4994857;28;997;-74
2022/03/19 12:48:49;;;;;;;;;;;;;;;21.29;14.77;99932.53;4994430;28;1282;-74
2022/03/19 12:51:24;;;;;;;;;;;;;;;21.54;14.32;99932.69;4982688;28;1516;-74
2022/03/19 12:53:50;;;;;;;;;;;;;;;21.78;14.27;99934.81;5010558;28;1043;-74
2022/03/19 12:56:22;;;;;;;;;;;;;;;21.99;14.04;99933.25;4994469;28;969;-74
2022/03/19 12:58:51;;;;;;;;;;;;;;;21.75;14.27;99940.47;4994285;28;982;-73
2022/03/19 13:01:18;;;;;;;;;;;;;;;21.31;14.43;99950.81;4994187;28;1509;-74
2022/03/19 13:03:43;;;;;;;;;;;;;;;21.10;14.64;99939.34;4994050;28;1902;-74
2022/03/19 13:06:09;;;;;;;;;;;;;;;21.49;14.49;99933.06;4994483;28;995;-74
2022/03/19 13:08:47;;;;;;;;;;;;;;;21.87;14.21;99927.97;4994140;28;975;-73
2022/03/19 13:11:13;;;;;;;;;;;;;;;21.91;14.13;99921.09;4994481;28;1024;-74
2022/03/19 13:13:40;;;;;;;;;;;;;;;21.79;14.20;99927.13;5017202;28;1151;-74